createdAt,value
2019-06-07T00:00:38.803Z,20.47
2019-06-07T00:03:05.265Z,18.90
2019-06-07T00:05:39.672Z,19.77
2019-06-07T00:08:22.521Z,19.40
2019-06-07T00:10:49.997Z,17.13
2019-06-07T00:13:24.325Z,17.83
2019-06-07T00:15:58.925Z,17.13
2019-06-07T00:18:33.023Z,17.40
2019-06-07T00:21:08.960Z,16.83
2019-06-07T00:23:42.998Z,18.30
2019-06-07T00:26:21.111Z,16.13
2019-06-07T00:28:52.870Z,19.00
2019-06-07T00:31:27.715Z,18.03
2019-06-07T00:34:01.765Z,18.23
2019-06-07T00:36:35.125Z,16.40
2019-06-07T00:39:10.644Z,18.03
2019-06-07T00:41:45.635Z,15.77
2019-06-07T00:44:21.559Z,15.97
2019-06-07T00:46:54.340Z,18.20
2019-06-07T00:49:40.690Z,23.27
2019-06-07T00:52:03.778Z,17.63
2019-06-07T00:54:38.390Z,18.57
2019-06-07T00:57:16.660Z,17.53
2019-06-07T00:59:48.765Z,18.30
2019-06-07T01:02:26.011Z,17.73
2019-06-07T01:04:57.492Z,19.63
2019-06-07T01:07:31.655Z,16.90
2019-06-07T01:10:05.212Z,19.17
2019-06-07T01:12:38.231Z,19.57
2019-06-07T01:15:15.767Z,18.67
2019-06-07T01:18:33.204Z,20.43
2019-06-07T01:20:24.854Z,18.40
2019-06-07T01:22:58.192Z,19.17
2019-06-07T01:25:31.574Z,16.20
2019-06-07T01:28:04.734Z,17.87
2019-06-07T01:30:38.457Z,23.97
2019-06-07T01:33:11.618Z,17.77
2019-06-07T01:35:44.569Z,19.97
2019-06-07T01:38:21.192Z,19.27
2019-06-07T01:40:52.865Z,20.63
2019-06-07T01:43:30.469Z,22.70
2019-06-07T01:46:03.554Z,20.33
2019-06-07T01:48:48.934Z,20.57
2019-06-07T01:51:13.623Z,21.30
2019-06-07T01:53:47.149Z,19.50
2019-06-07T01:56:22.546Z,18.90
2019-06-07T01:58:56.419Z,18.30
2019-06-07T02:01:35.027Z,20.57
2019-06-07T02:04:05.183Z,21.50
2019-06-07T02:06:38.665Z,20.10
2019-06-07T02:09:13.228Z,21.30
2019-06-07T02:11:46.704Z,25.00
2019-06-07T02:14:22.319Z,20.20
2019-06-07T02:16:54.983Z,20.50
2019-06-07T02:19:31.675Z,20.20
2019-06-07T02:22:03.499Z,22.87
2019-06-07T02:24:36.685Z,20.70
2019-06-07T02:27:10.062Z,23.10
2019-06-07T02:29:43.491Z,20.07
2019-06-07T02:32:16.949Z,18.67
2019-06-07T02:34:50.228Z,24.43
2019-06-07T02:37:26.355Z,18.53
2019-06-07T02:39:59.000Z,16.40
2019-06-07T02:42:39.004Z,17.60
2019-06-07T02:45:08.703Z,16.13
2019-06-07T02:47:45.360Z,16.97
2019-06-07T02:50:19.502Z,17.83
2019-06-07T02:52:53.844Z,18.53
2019-06-07T02:55:31.252Z,19.87
2019-06-07T02:58:04.155Z,19.83
2019-06-07T03:01:08.868Z,21.47
2019-06-07T03:03:28.345Z,20.40
2019-06-07T03:06:01.478Z,18.73
2019-06-07T03:08:36.818Z,18.40
2019-06-07T03:11:12.780Z,21.27
2019-06-07T03:13:48.537Z,20.73
2019-06-07T03:16:37.355Z,21.00
2019-06-07T03:19:18.233Z,21.83
2019-06-07T03:21:55.318Z,20.33
2019-06-07T03:24:31.565Z,18.60
2019-06-07T03:29:41.459Z,23.30
2019-06-07T03:32:15.519Z,23.30
2019-06-07T03:34:48.764Z,22.63
2019-06-07T03:37:21.967Z,21.13
2019-06-07T03:39:54.845Z,20.37
2019-06-07T03:42:29.208Z,47.93
2019-06-07T03:45:03.892Z,85.10
2019-06-07T03:47:41.427Z,94.00
2019-06-07T03:50:12.467Z,164.03
2019-06-07T03:52:45.496Z,59.23
2019-06-07T03:55:18.652Z,23.23
2019-06-07T04:00:29.615Z,21.53
2019-06-07T04:03:02.958Z,20.13
2019-06-07T04:05:38.831Z,23.33
2019-06-07T04:08:11.387Z,16.40
2019-06-07T04:10:59.031Z,15.67
2019-06-07T04:13:20.161Z,15.67
2019-06-07T04:15:53.539Z,16.30
2019-06-07T04:18:27.933Z,19.13
2019-06-07T04:21:01.374Z,18.13
2019-06-07T04:23:37.605Z,16.40
2019-06-07T04:26:10.072Z,16.47
2019-06-07T04:31:19.276Z,17.73
2019-06-07T04:33:53.374Z,18.40
2019-06-07T04:36:41.887Z,16.80
2019-06-07T04:39:03.491Z,16.03
2019-06-07T04:41:41.044Z,17.03
2019-06-07T04:44:17.486Z,18.73
2019-06-07T04:46:52.784Z,18.77
2019-06-07T04:49:29.721Z,18.43
2019-06-07T04:52:03.219Z,18.30
2019-06-07T04:54:38.534Z,16.43
2019-06-07T04:57:11.078Z,16.70
2019-06-07T05:02:19.947Z,14.73
2019-06-07T05:04:53.550Z,18.17
2019-06-07T05:07:27.022Z,15.30
2019-06-07T05:10:01.416Z,15.17
2019-06-07T05:12:39.474Z,15.60
2019-06-07T05:15:11.952Z,14.70
2019-06-07T05:17:46.077Z,13.97
2019-06-07T05:20:19.303Z,14.97
2019-06-07T05:22:52.989Z,14.57
2019-06-07T05:25:26.417Z,14.10
2019-06-07T05:28:00.826Z,14.27
2019-06-07T05:33:15.185Z,22.47
2019-06-07T05:35:48.956Z,19.53
2019-06-07T05:38:24.828Z,33.03
2019-06-07T05:40:58.645Z,27.33
2019-06-07T05:43:36.564Z,31.43
2019-06-07T05:46:09.745Z,24.50
2019-06-07T05:48:43.912Z,29.33
2019-06-07T05:51:18.499Z,18.63
2019-06-07T05:53:51.700Z,20.50
2019-06-07T05:56:25.560Z,15.97
2019-06-07T05:58:59.222Z,24.67
2019-06-07T06:01:59.767Z,14.27
2019-06-07T06:04:09.332Z,13.77
2019-06-07T06:06:46.496Z,13.80
2019-06-07T06:09:17.207Z,13.43
2019-06-07T06:12:01.794Z,13.60
2019-06-07T06:14:25.210Z,14.17
2019-06-07T06:16:58.966Z,13.67
2019-06-07T06:19:32.489Z,12.90
2019-06-07T06:22:05.957Z,13.43
2019-06-07T06:24:42.259Z,12.87
2019-06-07T06:27:41.751Z,14.43
2019-06-07T06:29:52.403Z,11.93
2019-06-07T06:32:49.322Z,13.07
2019-06-07T06:35:01.719Z,11.30
2019-06-07T06:37:35.299Z,12.27
2019-06-07T06:40:09.250Z,11.30
2019-06-07T06:42:44.748Z,10.93
2019-06-07T06:45:18.158Z,11.13
2019-06-07T06:47:51.561Z,9.50
2019-06-07T06:50:24.949Z,13.07
2019-06-07T06:52:58.327Z,11.13
2019-06-07T06:55:31.518Z,15.10
2019-06-07T06:58:04.497Z,10.27
2019-06-07T07:01:05.867Z,11.47
2019-06-07T07:03:57.343Z,12.03
2019-06-07T07:06:25.096Z,9.00
2019-06-07T07:08:43.665Z,11.80
2019-06-07T07:11:23.050Z,8.13
2019-06-07T07:13:56.707Z,10.03
2019-06-07T07:16:30.057Z,8.57
2019-06-07T07:19:03.316Z,7.57
2019-06-07T07:21:38.761Z,9.90
2019-06-07T07:24:21.867Z,8.50
2019-06-07T07:26:50.351Z,8.87
2019-06-07T07:29:23.255Z,8.23
2019-06-07T07:31:57.195Z,6.67
2019-06-07T07:34:36.657Z,6.33
2019-06-07T07:37:08.646Z,8.43
2019-06-07T07:39:45.295Z,7.27
2019-06-07T07:42:21.906Z,8.13
2019-06-07T07:44:56.765Z,7.30
2019-06-07T07:47:32.769Z,7.43
2019-06-07T07:50:07.338Z,9.57
2019-06-07T07:52:41.623Z,9.57
2019-06-07T07:55:15.436Z,10.27
2019-06-07T07:57:58.013Z,7.83
2019-06-07T08:00:50.270Z,10.77
2019-06-07T08:03:04.340Z,6.83
2019-06-07T08:05:42.949Z,9.23
2019-06-07T08:08:12.735Z,10.80
2019-06-07T08:10:51.364Z,7.00
2019-06-07T08:13:25.458Z,7.43
2019-06-07T08:16:00.387Z,5.73
2019-06-07T08:18:33.375Z,6.00
2019-06-07T08:21:22.489Z,13.33
2019-06-07T08:23:42.498Z,15.30
2019-06-07T08:26:16.408Z,6.77
2019-06-07T08:28:54.718Z,15.37
2019-06-07T08:31:26.828Z,17.97
2019-06-07T08:34:01.949Z,7.07
2019-06-07T08:36:42.490Z,5.10
2019-06-07T08:39:16.880Z,10.73
2019-06-07T08:41:59.367Z,5.00
2019-06-07T08:44:26.518Z,4.83
2019-06-07T08:47:18.897Z,6.23
2019-06-07T08:49:39.195Z,7.67
2019-06-07T08:52:13.019Z,6.53
2019-06-07T08:54:48.096Z,7.23
2019-06-07T08:57:22.133Z,5.77
2019-06-07T09:00:05.985Z,8.77
2019-06-07T09:02:32.954Z,6.17
2019-06-07T09:05:12.241Z,5.73
2019-06-07T09:07:46.457Z,8.93
2019-06-07T09:10:20.893Z,7.10
2019-06-07T09:13:00.297Z,6.97
2019-06-07T09:15:32.855Z,7.73
2019-06-07T09:18:40.094Z,10.47
2019-06-07T09:20:51.435Z,9.63
2019-06-07T09:23:25.149Z,7.87
2019-06-07T09:26:06.465Z,7.03
2019-06-07T09:28:35.555Z,7.43
2019-06-07T09:31:10.536Z,6.27
2019-06-07T09:33:43.766Z,6.57
2019-06-07T09:36:18.800Z,5.70
2019-06-07T09:38:52.745Z,8.47
2019-06-07T09:41:46.161Z,6.83
2019-06-07T09:44:18.946Z,11.87
2019-06-07T09:46:37.104Z,8.77
2019-06-07T09:49:21.135Z,5.97
2019-06-07T09:51:46.590Z,6.77
2019-06-07T09:55:03.372Z,4.40
2019-06-07T09:56:55.387Z,8.17
2019-06-07T09:59:29.443Z,7.03
2019-06-07T10:02:05.588Z,4.43
2019-06-07T10:04:38.342Z,9.73
2019-06-07T10:07:28.630Z,6.67
2019-06-07T10:10:19.633Z,6.23
2019-06-07T10:12:26.693Z,7.40
2019-06-07T10:15:07.034Z,7.57
2019-06-07T10:17:41.029Z,7.57
2019-06-07T10:20:14.692Z,6.63
2019-06-07T10:22:49.624Z,9.80
2019-06-07T10:25:23.146Z,5.93
2019-06-07T10:27:57.052Z,5.80
2019-06-07T10:30:30.951Z,7.57
2019-06-07T10:33:04.964Z,7.10
2019-06-07T10:35:39.245Z,8.47
2019-06-07T10:38:12.458Z,6.93
2019-06-07T10:40:45.585Z,9.70
2019-06-07T10:43:19.279Z,6.90
2019-06-07T10:45:52.831Z,6.97
2019-06-07T10:48:26.320Z,5.07
2019-06-07T10:51:00.121Z,12.07
2019-06-07T10:53:33.753Z,6.60
2019-06-07T10:56:09.024Z,5.43
2019-06-07T10:58:42.923Z,5.10
2019-06-07T11:01:17.513Z,6.80
2019-06-07T11:03:51.947Z,7.23
2019-06-07T11:06:26.276Z,5.93
2019-06-07T11:09:00.247Z,8.47
2019-06-07T11:11:33.702Z,8.33
2019-06-07T11:14:08.603Z,9.87
2019-06-07T11:16:42.599Z,7.80
2019-06-07T11:19:18.013Z,10.67
2019-06-07T11:21:51.207Z,8.57
2019-06-07T11:24:25.801Z,8.40
2019-06-07T11:26:59.267Z,11.40
2019-06-07T11:29:33.730Z,8.20
2019-06-07T11:32:08.407Z,8.27
2019-06-07T11:34:42.800Z,5.73
2019-06-07T11:37:19.069Z,8.47
2019-06-07T11:39:53.338Z,8.07
2019-06-07T11:42:28.207Z,8.27
2019-06-07T11:45:02.347Z,6.77
2019-06-07T11:47:37.553Z,13.77
2019-06-07T11:50:13.731Z,6.97
2019-06-07T11:52:49.087Z,8.17
2019-06-07T11:55:23.287Z,15.50
2019-06-07T11:58:01.770Z,8.43
2019-06-07T12:00:36.111Z,5.40
2019-06-07T12:03:11.551Z,10.03
2019-06-07T12:05:45.688Z,7.27
2019-06-07T12:08:22.783Z,8.47
2019-06-07T12:10:56.479Z,7.60
2019-06-07T12:13:31.113Z,8.47
2019-06-07T12:16:09.062Z,6.70
2019-06-07T12:18:43.075Z,13.57
2019-06-07T12:21:18.007Z,12.80
2019-06-07T12:23:52.337Z,12.80
2019-06-07T12:26:26.404Z,9.57
2019-06-07T12:29:00.841Z,9.13
2019-06-07T12:31:34.658Z,17.37
2019-06-07T12:34:09.398Z,8.97
2019-06-07T12:36:43.084Z,26.10
2019-06-07T12:39:16.613Z,13.40
2019-06-07T12:41:49.929Z,44.43
2019-06-07T12:44:23.937Z,13.10
2019-06-07T12:46:59.573Z,9.50
2019-06-07T12:49:36.059Z,9.87
2019-06-07T12:52:15.694Z,16.67
2019-06-07T12:54:48.601Z,8.43
2019-06-07T12:57:24.325Z,8.40
2019-06-07T12:59:59.818Z,9.23
2019-06-07T13:02:35.596Z,6.13
2019-06-07T13:05:11.296Z,22.23
2019-06-07T13:07:44.826Z,7.47
2019-06-07T13:10:22.053Z,10.00
2019-06-07T13:12:57.580Z,12.23
2019-06-07T13:15:36.575Z,8.37
2019-06-07T13:18:14.837Z,8.83
2019-06-07T13:20:47.054Z,9.97
2019-06-07T13:23:22.673Z,7.33
2019-06-07T13:25:57.896Z,6.47
2019-06-07T13:28:31.955Z,7.97
2019-06-07T13:31:06.262Z,7.27
2019-06-07T13:33:42.900Z,6.67
2019-06-07T13:36:18.022Z,8.27
2019-06-07T13:38:54.896Z,7.57
2019-06-07T13:41:40.524Z,4.57
2019-06-07T13:44:04.548Z,8.13
2019-06-07T13:46:38.561Z,4.73
2019-06-07T13:49:12.411Z,8.63
2019-06-07T13:51:48.736Z,6.80
2019-06-07T13:54:22.832Z,7.53
2019-06-07T13:57:02.282Z,7.57
2019-06-07T13:59:31.771Z,8.03
2019-06-07T14:02:05.299Z,5.73
2019-06-07T14:04:39.226Z,10.50
2019-06-07T14:07:13.282Z,12.47
2019-06-07T14:09:47.659Z,13.17
2019-06-07T14:12:22.272Z,8.90
2019-06-07T14:14:57.193Z,7.03
2019-06-07T14:17:32.533Z,7.70
2019-06-07T14:20:06.968Z,6.77
2019-06-07T14:22:40.747Z,11.20
2019-06-07T14:25:14.386Z,9.13
2019-06-07T14:27:48.599Z,9.53
2019-06-07T14:30:23.807Z,22.37
2019-06-07T14:32:57.725Z,6.50
2019-06-07T14:35:33.690Z,8.13
2019-06-07T14:38:08.876Z,10.47
2019-06-07T14:40:43.294Z,10.67
2019-06-07T14:43:17.653Z,8.33
2019-06-07T14:45:57.097Z,19.60
2019-06-07T14:48:33.022Z,6.80
2019-06-07T14:51:07.003Z,6.70
2019-06-07T14:53:40.813Z,11.23
2019-06-07T14:56:14.490Z,10.57
2019-06-07T14:58:48.477Z,6.67
2019-06-07T15:01:22.141Z,6.00
2019-06-07T15:03:55.816Z,8.10
2019-06-07T15:06:30.659Z,10.43
2019-06-07T15:09:07.035Z,9.80
2019-06-07T15:11:40.939Z,6.00
2019-06-07T15:14:17.475Z,10.67
2019-06-07T15:16:51.621Z,8.07
2019-06-07T15:19:26.616Z,13.10
2019-06-07T15:22:00.703Z,10.80
2019-06-07T15:24:38.610Z,6.97
2019-06-07T15:27:10.512Z,12.70
2019-06-07T15:29:45.191Z,19.77
2019-06-07T15:32:19.600Z,18.27
2019-06-07T15:34:53.550Z,84.03
2019-06-07T15:37:26.772Z,13.70
2019-06-07T15:40:07.530Z,10.07
2019-06-07T15:42:51.919Z,12.70
2019-06-07T15:45:19.805Z,23.20
2019-06-07T15:47:54.663Z,16.23
2019-06-07T15:50:30.387Z,27.47
2019-06-07T15:53:06.851Z,7.63
2019-06-07T15:55:45.409Z,7.93
2019-06-07T15:58:18.634Z,25.17
2019-06-07T16:00:53.657Z,10.10
2019-06-07T16:03:28.181Z,5.97
2019-06-07T16:06:01.899Z,7.23
2019-06-07T16:08:36.300Z,7.47
2019-06-07T16:11:11.596Z,7.23
2019-06-07T16:13:46.405Z,10.43
2019-06-07T16:16:20.480Z,86.60
2019-06-07T16:18:56.035Z,6.70
2019-06-07T16:21:30.658Z,7.70
2019-06-07T16:24:05.843Z,12.57
2019-06-07T16:26:40.452Z,9.13
2019-06-07T16:29:15.097Z,6.50
2019-06-07T16:31:49.773Z,7.53
2019-06-07T16:34:30.408Z,8.77
2019-06-07T16:37:04.967Z,6.03
2019-06-07T16:39:45.738Z,6.03
2019-06-07T16:42:21.334Z,8.20
2019-06-07T16:44:55.208Z,7.10
2019-06-07T16:47:30.021Z,7.37
2019-06-07T16:50:04.855Z,8.70
2019-06-07T16:52:39.210Z,8.10
2019-06-07T16:55:14.010Z,8.00
2019-06-07T16:57:49.367Z,7.87
2019-06-07T17:00:25.241Z,6.90
2019-06-07T17:03:00.006Z,7.27
2019-06-07T17:05:33.629Z,9.40
2019-06-07T17:08:10.256Z,10.37
2019-06-07T17:10:46.289Z,9.47
2019-06-07T17:13:33.115Z,7.47
2019-06-07T17:15:56.245Z,5.83
2019-06-07T17:18:31.033Z,9.77
2019-06-07T17:21:04.820Z,12.77
2019-06-07T17:23:47.308Z,7.93
2019-06-07T17:26:21.656Z,7.10
2019-06-07T17:28:56.436Z,8.67
2019-06-07T17:31:31.384Z,7.53
2019-06-07T17:34:05.638Z,10.07
2019-06-07T17:36:40.340Z,7.93
2019-06-07T17:39:15.027Z,7.77
2019-06-07T17:42:00.015Z,7.47
2019-06-07T17:44:27.082Z,5.13
2019-06-07T17:47:01.323Z,9.67
2019-06-07T17:49:36.068Z,6.87
2019-06-07T17:52:10.933Z,10.77
2019-06-07T17:54:47.924Z,10.53
2019-06-07T17:57:22.818Z,5.50
2019-06-07T17:59:56.311Z,6.00
2019-06-07T18:02:32.911Z,6.90
2019-06-07T18:05:07.953Z,6.00
2019-06-07T18:07:45.345Z,4.90
2019-06-07T18:10:37.294Z,5.17
2019-06-07T18:13:14.695Z,5.97
2019-06-07T18:15:53.938Z,6.57
2019-06-07T18:18:26.913Z,6.90
2019-06-07T18:21:01.178Z,12.30
2019-06-07T18:23:34.733Z,7.43
2019-06-07T18:26:10.875Z,7.20
2019-06-07T18:28:44.934Z,6.23
2019-06-07T18:31:19.063Z,4.20
2019-06-07T18:33:53.330Z,6.83
2019-06-07T18:36:27.754Z,6.97
2019-06-07T18:39:04.381Z,6.20
2019-06-07T18:41:38.824Z,6.63
2019-06-07T18:44:21.598Z,5.67
2019-06-07T18:46:52.231Z,10.13
2019-06-07T18:49:26.000Z,4.60
2019-06-07T18:52:25.848Z,4.10
2019-06-07T18:55:04.482Z,4.53
2019-06-07T18:57:39.232Z,4.60
2019-06-07T19:00:20.465Z,7.83
2019-06-07T19:02:56.116Z,7.53
2019-06-07T19:05:30.674Z,8.67
2019-06-07T19:08:07.047Z,3.70
2019-06-07T19:10:45.808Z,8.13
2019-06-07T19:13:19.803Z,7.80
2019-06-07T19:15:53.744Z,7.80
2019-06-07T19:18:28.837Z,7.27
2019-06-07T19:21:04.995Z,4.03
2019-06-07T19:23:45.408Z,5.20
2019-06-07T19:26:20.060Z,3.80
2019-06-07T19:28:58.854Z,4.47
2019-06-07T19:31:34.400Z,7.73
2019-06-07T19:34:10.711Z,4.63
2019-06-07T19:36:49.082Z,6.07
2019-06-07T19:39:23.475Z,4.30
2019-06-07T19:42:00.078Z,4.73
2019-06-07T19:44:34.183Z,5.50
2019-06-07T19:47:09.438Z,3.73
2019-06-07T19:49:44.888Z,5.10
2019-06-07T19:52:19.415Z,5.27
2019-06-07T19:54:59.815Z,8.57
2019-06-07T19:57:35.096Z,8.33
2019-06-07T20:00:14.531Z,4.50
2019-06-07T20:02:49.433Z,6.17
2019-06-07T20:05:29.477Z,6.00
2019-06-07T20:08:04.917Z,8.60
2019-06-07T20:10:48.366Z,4.37
2019-06-07T20:13:25.092Z,5.37
2019-06-07T20:16:00.900Z,5.10
2019-06-07T20:18:34.619Z,3.70
2019-06-07T20:21:09.223Z,5.93
2019-06-07T20:23:52.401Z,3.37
2019-06-07T20:26:27.471Z,6.37
2019-06-07T20:29:03.540Z,4.60
2019-06-07T20:31:37.847Z,15.33
2019-06-07T20:34:12.463Z,4.33
2019-06-07T20:36:46.188Z,8.50
2019-06-07T20:39:20.873Z,7.73
2019-06-07T20:41:55.602Z,10.07
2019-06-07T20:44:30.502Z,6.80
2019-06-07T20:47:06.445Z,6.77
2019-06-07T20:49:41.407Z,4.73
2019-06-07T20:52:16.484Z,5.57
2019-06-07T20:54:51.992Z,4.40
2019-06-07T20:57:29.209Z,4.33
2019-06-07T21:00:13.679Z,4.23
2019-06-07T21:02:46.084Z,4.70
2019-06-07T21:05:19.404Z,6.23
2019-06-07T21:07:52.780Z,4.10
2019-06-07T21:10:27.270Z,5.57
2019-06-07T21:13:03.785Z,5.13
2019-06-07T21:15:48.535Z,5.47
2019-06-07T21:18:20.046Z,5.40
2019-06-07T21:20:55.452Z,3.87
2019-06-07T21:23:30.751Z,6.83
2019-06-07T21:26:05.040Z,8.27
2019-06-07T21:28:39.961Z,4.90
2019-06-07T21:31:13.540Z,6.50
2019-06-07T21:33:47.164Z,3.80
2019-06-07T21:36:20.764Z,5.97
2019-06-07T21:38:54.303Z,5.77
2019-06-07T21:41:28.777Z,7.40
2019-06-07T21:44:02.481Z,6.97
2019-06-07T21:46:36.485Z,4.40
2019-06-07T21:49:10.537Z,5.80
2019-06-07T21:51:44.315Z,7.37
2019-06-07T21:54:19.580Z,5.53
2019-06-07T21:56:53.424Z,5.93
2019-06-07T21:59:28.601Z,4.33
2019-06-07T22:02:28.688Z,4.03
2019-06-07T22:05:03.368Z,8.67
2019-06-07T22:07:37.606Z,3.77
2019-06-07T22:10:14.475Z,5.53
2019-06-07T22:12:48.431Z,4.80
2019-06-07T22:15:33.941Z,4.03
2019-06-07T22:18:01.579Z,3.60
2019-06-07T22:20:35.560Z,6.90
2019-06-07T22:23:10.696Z,7.80
2019-06-07T22:25:45.126Z,6.57
2019-06-07T22:28:18.813Z,3.83
2019-06-07T22:30:52.733Z,8.50
2019-06-07T22:33:27.523Z,4.70
2019-06-07T22:36:00.889Z,5.97
2019-06-07T22:38:34.621Z,6.60
2019-06-07T22:41:09.342Z,4.37
2019-06-07T22:43:43.759Z,7.20
2019-06-07T22:46:17.371Z,4.53
2019-06-07T22:48:50.717Z,5.93
2019-06-07T22:51:24.522Z,5.77
2019-06-07T22:53:58.273Z,5.67
2019-06-07T22:56:43.482Z,6.07
2019-06-07T22:59:19.146Z,9.07
2019-06-07T23:01:52.445Z,3.90
2019-06-07T23:04:25.950Z,5.27
2019-06-07T23:06:59.443Z,11.03
2019-06-07T23:09:32.410Z,4.50
2019-06-07T23:12:05.672Z,6.40
2019-06-07T23:14:38.708Z,3.67
2019-06-07T23:17:11.749Z,3.13
2019-06-07T23:19:44.680Z,5.20
2019-06-07T23:22:18.118Z,5.70
2019-06-07T23:24:51.279Z,7.83
2019-06-07T23:27:24.561Z,4.50
2019-06-07T23:29:58.072Z,6.70
2019-06-07T23:32:31.821Z,4.73
2019-06-07T23:35:05.851Z,7.93
2019-06-07T23:37:39.185Z,7.87
2019-06-07T23:40:13.131Z,5.17
2019-06-07T23:42:46.798Z,6.03
2019-06-07T23:45:21.575Z,3.97
2019-06-07T23:47:55.008Z,4.83
2019-06-07T23:50:28.340Z,3.07
2019-06-07T23:53:03.072Z,4.07
2019-06-07T23:55:36.997Z,6.77
2019-06-07T23:58:13.859Z,5.63
